sensor_id;sensor_type;location;lat;lon;timestamp;pressure;altitude;pressure_sealevel;temperature;humidity
53635;BME280;39542;-34.932;138.594;2023-10-19T00:00:11;101220.68;;;23.49;48.61
53635;BME280;39542;-34.932;138.594;2023-10-19T00:00:47;101221.75;;;23.64;48.49
53635;BME280;39542;-34.932;138.594;2023-10-19T00:01:21;101224.96;;;23.65;48.38
53635;BME280;39542;-34.932;138.594;2023-10-19T00:01:56;101224.69;;;23.63;48.55
53635;BME280;39542;-34.932;138.594;2023-10-19T00:02:31;101229.27;;;23.59;48.49
53635;BME280;39542;-34.932;138.594;2023-10-19T00:03:05;101227.70;;;23.43;48.69
53635;BME280;39542;-34.932;138.594;2023-10-19T00:03:40;101227.63;;;23.54;48.50
53635;BME280;39542;-34.932;138.594;2023-10-19T00:04:14;101227.58;;;23.69;48.31
53635;BME280;39542;-34.932;138.594;2023-10-19T00:04:48;101227.44;;;23.71;48.25
53635;BME280;39542;-34.932;138.594;2023-10-19T00:05:23;101230.48;;;23.73;48.33
53635;BME280;39542;-34.932;138.594;2023-10-19T00:05:58;101231.29;;;23.70;48.33
53635;BME280;39542;-34.932;138.594;2023-10-19T00:06:32;101229.21;;;23.78;48.39
53635;BME280;39542;-34.932;138.594;2023-10-19T00:07:06;101231.41;;;23.75;48.25
53635;BME280;39542;-34.932;138.594;2023-10-19T00:07:41;101228.07;;;23.70;48.39
53635;BME280;39542;-34.932;138.594;2023-10-19T00:08:15;101228.63;;;23.72;48.32
53635;BME280;39542;-34.932;138.594;2023-10-19T00:08:50;101227.20;;;23.71;48.25
53635;BME280;39542;-34.932;138.594;2023-10-19T00:09:26;101228.39;;;23.63;48.50
53635;BME280;39542;-34.932;138.594;2023-10-19T00:10:01;101229.56;;;23.68;48.43
53635;BME280;39542;-34.932;138.594;2023-10-19T00:10:35;101231.23;;;23.77;48.26
53635;BME280;39542;-34.932;138.594;2023-10-19T00:11:10;101229.62;;;23.76;48.23
53635;BME280;39542;-34.932;138.594;2023-10-19T00:11:44;101230.52;;;23.75;48.21
53635;BME280;39542;-34.932;138.594;2023-10-19T00:12:18;101228.84;;;23.74;48.33
53635;BME280;39542;-34.932;138.594;2023-10-19T00:12:53;101230.47;;;23.67;48.42
53635;BME280;39542;-34.932;138.594;2023-10-19T00:13:27;101228.01;;;23.69;48.40
53635;BME280;39542;-34.932;138.594;2023-10-19T00:14:01;101230.39;;;23.83;48.13
53635;BME280;39542;-34.932;138.594;2023-10-19T00:14:36;101233.15;;;23.84;48.26
53635;BME280;39542;-34.932;138.594;2023-10-19T00:15:11;101226.97;;;23.72;48.45
53635;BME280;39542;-34.932;138.594;2023-10-19T00:15:45;101226.50;;;23.88;48.09
53635;BME280;39542;-34.932;138.594;2023-10-19T00:16:20;101230.29;;;23.81;48.16
53635;BME280;39542;-34.932;138.594;2023-10-19T00:16:54;101227.47;;;23.74;48.32
53635;BME280;39542;-34.932;138.594;2023-10-19T00:17:28;101225.72;;;23.78;48.22
53635;BME280;39542;-34.932;138.594;2023-10-19T00:18:03;101225.52;;;23.80;48.20
53635;BME280;39542;-34.932;138.594;2023-10-19T00:18:37;101226.40;;;23.80;48.32
53635;BME280;39542;-34.932;138.594;2023-10-19T00:19:12;101225.81;;;23.84;48.24
53635;BME280;39542;-34.932;138.594;2023-10-19T00:19:45;101224.89;;;23.78;48.24
53635;BME280;39542;-34.932;138.594;2023-10-19T00:20:20;101225.14;;;23.85;48.17
53635;BME280;39542;-34.932;138.594;2023-10-19T00:20:55;101223.16;;;23.82;48.12
53635;BME280;39542;-34.932;138.594;2023-10-19T00:21:30;101220.86;;;23.74;48.27
53635;BME280;39542;-34.932;138.594;2023-10-19T00:22:04;101223.62;;;23.79;48.24
53635;BME280;39542;-34.932;138.594;2023-10-19T00:22:38;101222.17;;;23.84;48.24
53635;BME280;39542;-34.932;138.594;2023-10-19T00:23:13;101222.57;;;23.77;48.25
53635;BME280;39542;-34.932;138.594;2023-10-19T00:23:49;101223.60;;;23.90;48.06
53635;BME280;39542;-34.932;138.594;2023-10-19T00:24:24;101223.75;;;23.84;48.25
53635;BME280;39542;-34.932;138.594;2023-10-19T00:24:58;101222.98;;;23.84;48.24
53635;BME280;39542;-34.932;138.594;2023-10-19T00:25:32;101224.38;;;23.85;48.16
53635;BME280;39542;-34.932;138.594;2023-10-19T00:26:07;101223.27;;;23.87;48.07
53635;BME280;39542;-34.932;138.594;2023-10-19T00:26:41;101221.58;;;23.75;48.37
53635;BME280;39542;-34.932;138.594;2023-10-19T00:27:16;101222.01;;;23.81;48.15
53635;BME280;39542;-34.932;138.594;2023-10-19T00:27:50;101220.89;;;23.79;48.37
53635;BME280;39542;-34.932;138.594;2023-10-19T00:28:24;101223.98;;;23.77;48.26
53635;BME280;39542;-34.932;138.594;2023-10-19T00:28:59;101226.08;;;23.83;48.20
53635;BME280;39542;-34.932;138.594;2023-10-19T00:29:33;101225.92;;;23.90;48.09
53635;BME280;39542;-34.932;138.594;2023-10-19T00:30:08;101223.74;;;23.71;48.43
53635;BME280;39542;-34.932;138.594;2023-10-19T00:30:42;101225.20;;;23.73;48.50
53635;BME280;39542;-34.932;138.594;2023-10-19T00:31:18;101222.47;;;23.58;48.72
53635;BME280;39542;-34.932;138.594;2023-10-19T00:31:52;101221.89;;;23.55;48.69
53635;BME280;39542;-34.932;138.594;2023-10-19T00:32:26;101218.64;;;23.64;48.62
53635;BME280;39542;-34.932;138.594;2023-10-19T00:33:01;101222.88;;;23.68;48.44
53635;BME280;39542;-34.932;138.594;2023-10-19T00:33:35;101221.48;;;23.75;48.34
53635;BME280;39542;-34.932;138.594;2023-10-19T00:34:10;101218.78;;;23.84;48.31
53635;BME280;39542;-34.932;138.594;2023-10-19T00:34:44;101217.07;;;23.87;48.10
53635;BME280;39542;-34.932;138.594;2023-10-19T00:35:18;101218.02;;;23.77;48.23
53635;BME280;39542;-34.932;138.594;2023-10-19T00:35:52;101217.94;;;23.78;48.35
53635;BME280;39542;-34.932;138.594;2023-10-19T00:36:26;101216.82;;;23.74;48.40
53635;BME280;39542;-34.932;138.594;2023-10-19T00:37:00;101217.15;;;23.86;48.13
53635;BME280;39542;-34.932;138.594;2023-10-19T00:37:35;101214.04;;;23.83;48.16
53635;BME280;39542;-34.932;138.594;2023-10-19T00:38:09;101216.51;;;23.83;48.20
53635;BME280;39542;-34.932;138.594;2023-10-19T00:38:43;101209.56;;;23.95;48.05
53635;BME280;39542;-34.932;138.594;2023-10-19T00:39:18;101216.32;;;23.82;48.24
53635;BME280;39542;-34.932;138.594;2023-10-19T00:39:53;101213.83;;;23.74;48.33
53635;BME280;39542;-34.932;138.594;2023-10-19T00:40:27;101216.68;;;23.82;48.23
53635;BME280;39542;-34.932;138.594;2023-10-19T00:41:01;101212.99;;;23.89;48.09
53635;BME280;39542;-34.932;138.594;2023-10-19T00:41:36;101218.76;;;23.76;48.37
53635;BME280;39542;-34.932;138.594;2023-10-19T00:42:10;101212.92;;;23.85;48.23
53635;BME280;39542;-34.932;138.594;2023-10-19T00:42:45;101211.46;;;23.87;48.22
53635;BME280;39542;-34.932;138.594;2023-10-19T00:43:28;101211.65;;;23.93;48.08
53635;BME280;39542;-34.932;138.594;2023-10-19T00:44:03;101211.42;;;23.99;48.18
53635;BME280;39542;-34.932;138.594;2023-10-19T00:44:38;101212.91;;;23.95;48.15
53635;BME280;39542;-34.932;138.594;2023-10-19T00:45:12;101215.87;;;23.88;48.19
53635;BME280;39542;-34.932;138.594;2023-10-19T00:45:47;101212.75;;;23.87;48.18
53635;BME280;39542;-34.932;138.594;2023-10-19T00:46:21;101213.54;;;23.83;48.41
53635;BME280;39542;-34.932;138.594;2023-10-19T00:46:55;101206.60;;;23.95;48.08
53635;BME280;39542;-34.932;138.594;2023-10-19T00:47:30;101210.56;;;23.86;48.23
53635;BME280;39542;-34.932;138.594;2023-10-19T00:48:05;101207.10;;;23.94;48.14
53635;BME280;39542;-34.932;138.594;2023-10-19T00:48:40;101204.82;;;23.94;48.07
53635;BME280;39542;-34.932;138.594;2023-10-19T00:49:16;101205.72;;;23.97;48.12
53635;BME280;39542;-34.932;138.594;2023-10-19T00:49:50;101204.02;;;23.98;48.05
53635;BME280;39542;-34.932;138.594;2023-10-19T00:50:26;101203.88;;;23.96;48.12
53635;BME280;39542;-34.932;138.594;2023-10-19T00:51:01;101207.82;;;23.82;48.36
53635;BME280;39542;-34.932;138.594;2023-10-19T00:51:37;101204.28;;;23.95;48.16
53635;BME280;39542;-34.932;138.594;2023-10-19T00:52:13;101209.73;;;23.66;48.53
53635;BME280;39542;-34.932;138.594;2023-10-19T00:52:48;101206.74;;;23.73;48.55
53635;BME280;39542;-34.932;138.594;2023-10-19T00:53:23;101207.67;;;23.73;48.41
53635;BME280;39542;-34.932;138.594;2023-10-19T00:53:59;101201.69;;;23.85;48.39
53635;BME280;39542;-34.932;138.594;2023-10-19T00:54:35;101203.75;;;23.92;48.19
53635;BME280;39542;-34.932;138.594;2023-10-19T00:55:11;101202.36;;;23.88;48.24
53635;BME280;39542;-34.932;138.594;2023-10-19T00:55:48;101200.58;;;23.93;48.16
53635;BME280;39542;-34.932;138.594;2023-10-19T00:56:23;101201.94;;;23.98;48.06
53635;BME280;39542;-34.932;138.594;2023-10-19T00:56:58;101202.19;;;23.93;48.19
53635;BME280;39542;-34.932;138.594;2023-10-19T00:57:32;101203.11;;;23.96;48.14
53635;BME280;39542;-34.932;138.594;2023-10-19T00:58:07;101202.01;;;24.01;48.12
53635;BME280;39542;-34.932;138.594;2023-10-19T00:58:42;101199.98;;;23.95;48.18
53635;BME280;39542;-34.932;138.594;2023-10-19T00:59:19;101200.46;;;24.03;48.08
53635;BME280;39542;-34.932;138.594;2023-10-19T00:59:54;101199.82;;;24.04;48.15
53635;BME280;39542;-34.932;138.594;2023-10-19T01:00:28;101198.86;;;24.07;48.09
53635;BME280;39542;-34.932;138.594;2023-10-19T01:01:03;101200.07;;;23.97;48.22
53635;BME280;39542;-34.932;138.594;2023-10-19T01:01:37;101195.81;;;24.02;48.13
53635;BME280;39542;-34.932;138.594;2023-10-19T01:02:12;101198.44;;;24.02;48.08
53635;BME280;39542;-34.932;138.594;2023-10-19T01:02:47;101194.79;;;24.02;48.12
53635;BME280;39542;-34.932;138.594;2023-10-19T01:03:21;101195.78;;;23.97;48.35
53635;BME280;39542;-34.932;138.594;2023-10-19T01:03:55;101194.13;;;24.00;48.13
53635;BME280;39542;-34.932;138.594;2023-10-19T01:04:30;101197.18;;;23.93;48.20
53635;BME280;39542;-34.932;138.594;2023-10-19T01:05:04;101196.61;;;23.98;48.22
53635;BME280;39542;-34.932;138.594;2023-10-19T01:05:38;101194.17;;;23.97;48.13
53635;BME280;39542;-34.932;138.594;2023-10-19T01:06:13;101192.45;;;23.99;48.27
53635;BME280;39542;-34.932;138.594;2023-10-19T01:06:47;101191.79;;;24.00;48.22
53635;BME280;39542;-34.932;138.594;2023-10-19T01:07:21;101192.64;;;23.98;48.20
53635;BME280;39542;-34.932;138.594;2023-10-19T01:07:56;101188.73;;;23.92;48.23
53635;BME280;39542;-34.932;138.594;2023-10-19T01:08:30;101189.53;;;23.94;48.31
53635;BME280;39542;-34.932;138.594;2023-10-19T01:09:05;101190.62;;;24.05;48.03
53635;BME280;39542;-34.932;138.594;2023-10-19T01:09:39;101191.21;;;23.99;48.21
53635;BME280;39542;-34.932;138.594;2023-10-19T01:10:14;101189.29;;;24.05;48.03
53635;BME280;39542;-34.932;138.594;2023-10-19T01:10:49;101189.64;;;23.96;48.32
53635;BME280;39542;-34.932;138.594;2023-10-19T01:11:23;101188.84;;;23.90;48.35
53635;BME280;39542;-34.932;138.594;2023-10-19T01:11:58;101190.24;;;23.96;48.12
53635;BME280;39542;-34.932;138.594;2023-10-19T01:12:32;101187.64;;;23.95;48.37
53635;BME280;39542;-34.932;138.594;2023-10-19T01:13:07;101189.77;;;24.02;48.16
53635;BME280;39542;-34.932;138.594;2023-10-19T01:13:41;101189.12;;;24.02;48.13
53635;BME280;39542;-34.932;138.594;2023-10-19T01:14:24;101187.00;;;24.01;48.45
53635;BME280;39542;-34.932;138.594;2023-10-19T01:15:08;101182.86;;;23.94;48.43
53635;BME280;39542;-34.932;138.594;2023-10-19T01:15:43;101186.21;;;23.98;48.29
53635;BME280;39542;-34.932;138.594;2023-10-19T01:16:17;101184.80;;;23.74;48.51
53635;BME280;39542;-34.932;138.594;2023-10-19T01:16:52;101183.50;;;23.83;48.56
53635;BME280;39542;-34.932;138.594;2023-10-19T01:17:26;101185.12;;;24.03;48.23
53635;BME280;39542;-34.932;138.594;2023-10-19T01:18:01;101187.36;;;24.00;48.28
53635;BME280;39542;-34.932;138.594;2023-10-19T01:18:35;101186.51;;;24.03;48.21
53635;BME280;39542;-34.932;138.594;2023-10-19T01:19:09;101184.99;;;24.05;48.09
53635;BME280;39542;-34.932;138.594;2023-10-19T01:19:44;101183.90;;;24.08;48.10
53635;BME280;39542;-34.932;138.594;2023-10-19T01:20:20;101184.08;;;24.08;48.16
53635;BME280;39542;-34.932;138.594;2023-10-19T01:20:54;101181.04;;;24.13;48.00
53635;BME280;39542;-34.932;138.594;2023-10-19T01:21:29;101182.52;;;24.05;48.17
53635;BME280;39542;-34.932;138.594;2023-10-19T01:22:03;101180.38;;;24.03;48.31
53635;BME280;39542;-34.932;138.594;2023-10-19T01:22:37;101179.67;;;24.04;48.20
53635;BME280;39542;-34.932;138.594;2023-10-19T01:23:11;101177.73;;;24.03;48.15
53635;BME280;39542;-34.932;138.594;2023-10-19T01:23:46;101178.19;;;24.05;48.23
53635;BME280;39542;-34.932;138.594;2023-10-19T01:24:21;101179.33;;;24.08;48.21
53635;BME280;39542;-34.932;138.594;2023-10-19T01:24:56;101178.98;;;24.14;48.06
53635;BME280;39542;-34.932;138.594;2023-10-19T01:25:30;101177.55;;;24.08;48.28
53635;BME280;39542;-34.932;138.594;2023-10-19T01:26:04;101177.05;;;24.13;48.07
53635;BME280;39542;-34.932;138.594;2023-10-19T01:26:38;101172.44;;;24.09;48.20
53635;BME280;39542;-34.932;138.594;2023-10-19T01:27:12;101172.16;;;24.06;48.12
53635;BME280;39542;-34.932;138.594;2023-10-19T01:27:46;101172.22;;;24.04;48.30
53635;BME280;39542;-34.932;138.594;2023-10-19T01:28:21;101173.84;;;23.99;48.37
53635;BME280;39542;-34.932;138.594;2023-10-19T01:28:55;101173.34;;;24.07;48.18
53635;BME280;39542;-34.932;138.594;2023-10-19T01:29:29;101171.28;;;23.94;48.53
53635;BME280;39542;-34.932;138.594;2023-10-19T01:30:04;101172.89;;;23.99;48.27
53635;BME280;39542;-34.932;138.594;2023-10-19T01:30:39;101172.06;;;24.05;48.25
53635;BME280;39542;-34.932;138.594;2023-10-19T01:31:14;101171.25;;;24.05;48.39
53635;BME280;39542;-34.932;138.594;2023-10-19T01:31:49;101172.34;;;24.13;48.21
53635;BME280;39542;-34.932;138.594;2023-10-19T01:32:23;101171.81;;;24.09;48.18
53635;BME280;39542;-34.932;138.594;2023-10-19T01:32:57;101171.46;;;24.01;48.38
53635;BME280;39542;-34.932;138.594;2023-10-19T01:33:31;101167.27;;;23.83;48.53
53635;BME280;39542;-34.932;138.594;2023-10-19T01:34:06;101166.69;;;24.01;48.37
53635;BME280;39542;-34.932;138.594;2023-10-19T01:34:40;101171.30;;;23.94;48.40
53635;BME280;39542;-34.932;138.594;2023-10-19T01:35:14;101171.64;;;24.09;48.15
53635;BME280;39542;-34.932;138.594;2023-10-19T01:35:49;101168.13;;;23.99;48.25
53635;BME280;39542;-34.932;138.594;2023-10-19T01:36:24;101166.02;;;24.09;48.17
53635;BME280;39542;-34.932;138.594;2023-10-19T01:36:58;101166.35;;;24.02;48.42
53635;BME280;39542;-34.932;138.594;2023-10-19T01:37:33;101169.50;;;24.01;48.29
53635;BME280;39542;-34.932;138.594;2023-10-19T01:38:07;101172.45;;;24.04;48.34
53635;BME280;39542;-34.932;138.594;2023-10-19T01:38:41;101166.93;;;24.06;48.20
53635;BME280;39542;-34.932;138.594;2023-10-19T01:39:16;101163.95;;;24.06;48.25
53635;BME280;39542;-34.932;138.594;2023-10-19T01:39:50;101166.37;;;24.10;48.23
53635;BME280;39542;-34.932;138.594;2023-10-19T01:40:25;101164.93;;;24.14;48.05
53635;BME280;39542;-34.932;138.594;2023-10-19T01:40:59;101165.27;;;23.99;48.32
53635;BME280;39542;-34.932;138.594;2023-10-19T01:41:34;101162.05;;;23.91;48.46
53635;BME280;39542;-34.932;138.594;2023-10-19T01:42:08;101158.93;;;24.04;48.49
53635;BME280;39542;-34.932;138.594;2023-10-19T01:42:42;101156.08;;;24.05;48.27
53635;BME280;39542;-34.932;138.594;2023-10-19T01:43:17;101157.11;;;24.15;48.12
53635;BME280;39542;-34.932;138.594;2023-10-19T01:43:52;101157.41;;;24.17;48.15
53635;BME280;39542;-34.932;138.594;2023-10-19T01:44:27;101156.66;;;24.06;48.21
53635;BME280;39542;-34.932;138.594;2023-10-19T01:45:01;101154.96;;;24.06;48.49
53635;BME280;39542;-34.932;138.594;2023-10-19T01:45:35;101156.01;;;24.08;48.20
53635;BME280;39542;-34.932;138.594;2023-10-19T01:46:11;101155.51;;;24.15;48.09
53635;BME280;39542;-34.932;138.594;2023-10-19T01:46:45;101152.25;;;24.18;48.03
53635;BME280;39542;-34.932;138.594;2023-10-19T01:47:20;101155.68;;;24.16;48.18
53635;BME280;39542;-34.932;138.594;2023-10-19T01:47:54;101155.28;;;24.30;47.96
53635;BME280;39542;-34.932;138.594;2023-10-19T01:48:28;101155.40;;;24.23;47.93
53635;BME280;39542;-34.932;138.594;2023-10-19T01:49:03;101154.35;;;24.18;47.99
53635;BME280;39542;-34.932;138.594;2023-10-19T01:49:38;101156.33;;;24.28;47.95
53635;BME280;39542;-34.932;138.594;2023-10-19T01:50:12;101153.88;;;24.14;48.17
53635;BME280;39542;-34.932;138.594;2023-10-19T01:50:46;101153.27;;;24.24;48.06
53635;BME280;39542;-34.932;138.594;2023-10-19T01:51:21;101152.40;;;24.13;48.28
53635;BME280;39542;-34.932;138.594;2023-10-19T01:51:56;101152.77;;;24.19;47.97
53635;BME280;39542;-34.932;138.594;2023-10-19T01:52:30;101152.41;;;24.17;48.20
53635;BME280;39542;-34.932;138.594;2023-10-19T01:53:05;101152.14;;;24.26;47.99
53635;BME280;39542;-34.932;138.594;2023-10-19T01:53:40;101152.82;;;24.21;48.12
53635;BME280;39542;-34.932;138.594;2023-10-19T01:54:15;101153.37;;;24.17;48.20
53635;BME280;39542;-34.932;138.594;2023-10-19T01:54:49;101150.78;;;24.16;48.11
53635;BME280;39542;-34.932;138.594;2023-10-19T01:55:23;101151.24;;;23.91;48.50
53635;BME280;39542;-34.932;138.594;2023-10-19T01:55:59;101150.97;;;23.88;48.53
53635;BME280;39542;-34.932;138.594;2023-10-19T01:56:33;101148.85;;;24.08;48.41
53635;BME280;39542;-34.932;138.594;2023-10-19T01:57:08;101147.37;;;24.10;48.30
53635;BME280;39542;-34.932;138.594;2023-10-19T01:57:42;101149.15;;;24.15;48.25
53635;BME280;39542;-34.932;138.594;2023-10-19T01:58:16;101147.77;;;24.07;48.28
53635;BME280;39542;-34.932;138.594;2023-10-19T01:58:50;101149.48;;;24.12;48.24
53635;BME280;39542;-34.932;138.594;2023-10-19T01:59:26;101146.20;;;24.12;48.21
53635;BME280;39542;-34.932;138.594;2023-10-19T02:00:01;101145.95;;;24.03;48.31
53635;BME280;39542;-34.932;138.594;2023-10-19T02:00:36;101146.67;;;24.18;48.05
53635;BME280;39542;-34.932;138.594;2023-10-19T02:01:11;101146.00;;;24.13;48.10
53635;BME280;39542;-34.932;138.594;2023-10-19T02:01:45;101143.36;;;24.10;48.22
53635;BME280;39542;-34.932;138.594;2023-10-19T02:02:20;101146.02;;;23.84;48.61
53635;BME280;39542;-34.932;138.594;2023-10-19T02:02:54;101142.10;;;24.01;48.50
53635;BME280;39542;-34.932;138.594;2023-10-19T02:03:28;101144.30;;;24.08;48.33
53635;BME280;39542;-34.932;138.594;2023-10-19T02:04:05;101143.79;;;24.07;48.29
53635;BME280;39542;-34.932;138.594;2023-10-19T02:04:39;101144.76;;;24.15;48.28
53635;BME280;39542;-34.932;138.594;2023-10-19T02:05:14;101144.99;;;24.15;48.23
53635;BME280;39542;-34.932;138.594;2023-10-19T02:05:48;101143.09;;;24.24;48.04
53635;BME280;39542;-34.932;138.594;2023-10-19T02:06:23;101142.00;;;23.97;48.42
53635;BME280;39542;-34.932;138.594;2023-10-19T02:06:57;101140.76;;;23.96;48.45
53635;BME280;39542;-34.932;138.594;2023-10-19T02:07:31;101143.85;;;23.80;48.72
53635;BME280;39542;-34.932;138.594;2023-10-19T02:08:06;101139.75;;;23.64;48.90
53635;BME280;39542;-34.932;138.594;2023-10-19T02:08:40;101140.58;;;23.77;48.74
53635;BME280;39542;-34.932;138.594;2023-10-19T02:09:15;101137.60;;;23.95;48.51
53635;BME280;39542;-34.932;138.594;2023-10-19T02:09:49;101138.62;;;24.07;48.31
53635;BME280;39542;-34.932;138.594;2023-10-19T02:10:23;101139.29;;;24.14;48.29
53635;BME280;39542;-34.932;138.594;2023-10-19T02:10:57;101136.19;;;24.03;48.42
53635;BME280;39542;-34.932;138.594;2023-10-19T02:11:31;101136.32;;;24.07;48.31
53635;BME280;39542;-34.932;138.594;2023-10-19T02:12:06;101131.12;;;24.02;48.44
53635;BME280;39542;-34.932;138.594;2023-10-19T02:12:40;101127.03;;;24.06;48.40
53635;BME280;39542;-34.932;138.594;2023-10-19T02:13:14;101131.04;;;24.13;48.35
53635;BME280;39542;-34.932;138.594;2023-10-19T02:13:49;101130.93;;;24.17;48.25
53635;BME280;39542;-34.932;138.594;2023-10-19T02:14:24;101129.47;;;23.95;48.43
53635;BME280;39542;-34.932;138.594;2023-10-19T02:14:58;101132.44;;;24.16;48.20
53635;BME280;39542;-34.932;138.594;2023-10-19T02:15:33;101129.27;;;24.14;48.29
53635;BME280;39542;-34.932;138.594;2023-10-19T02:16:07;101129.67;;;24.04;48.41
53635;BME280;39542;-34.932;138.594;2023-10-19T02:16:42;101129.64;;;23.76;48.60
53635;BME280;39542;-34.932;138.594;2023-10-19T02:17:16;101126.67;;;23.94;48.56
53635;BME280;39542;-34.932;138.594;2023-10-19T02:17:51;101126.84;;;24.07;48.31
53635;BME280;39542;-34.932;138.594;2023-10-19T02:18:25;101127.86;;;24.08;48.35
53635;BME280;39542;-34.932;138.594;2023-10-19T02:19:00;101127.90;;;24.14;48.28
53635;BME280;39542;-34.932;138.594;2023-10-19T02:19:34;101126.56;;;24.17;48.19
53635;BME280;39542;-34.932;138.594;2023-10-19T02:20:10;101123.67;;;24.21;48.12
53635;BME280;39542;-34.932;138.594;2023-10-19T02:20:44;101124.27;;;24.20;48.10
53635;BME280;39542;-34.932;138.594;2023-10-19T02:21:19;101129.13;;;24.17;48.19
53635;BME280;39542;-34.932;138.594;2023-10-19T02:21:54;101124.43;;;24.23;48.13
53635;BME280;39542;-34.932;138.594;2023-10-19T02:22:30;101125.57;;;24.32;48.00
53635;BME280;39542;-34.932;138.594;2023-10-19T02:23:04;101124.76;;;24.25;48.14
53635;BME280;39542;-34.932;138.594;2023-10-19T02:23:39;101123.78;;;24.26;48.17
53635;BME280;39542;-34.932;138.594;2023-10-19T02:24:13;101124.14;;;24.31;48.08
53635;BME280;39542;-34.932;138.594;2023-10-19T02:24:48;101124.70;;;24.24;48.09
53635;BME280;39542;-34.932;138.594;2023-10-19T02:25:22;101122.01;;;24.26;47.99
53635;BME280;39542;-34.932;138.594;2023-10-19T02:25:56;101121.62;;;24.18;48.25
53635;BME280;39542;-34.932;138.594;2023-10-19T02:26:30;101121.93;;;24.12;48.33
53635;BME280;39542;-34.932;138.594;2023-10-19T02:27:04;101119.10;;;24.17;48.25
53635;BME280;39542;-34.932;138.594;2023-10-19T02:27:39;101115.28;;;24.22;48.11
53635;BME280;39542;-34.932;138.594;2023-10-19T02:28:13;101114.07;;;24.23;47.98
53635;BME280;39542;-34.932;138.594;2023-10-19T02:28:47;101112.71;;;24.29;48.00
53635;BME280;39542;-34.932;138.594;2023-10-19T02:29:21;101107.38;;;24.34;47.86
53635;BME280;39542;-34.932;138.594;2023-10-19T02:29:56;101107.11;;;24.30;47.90
53635;BME280;39542;-34.932;138.594;2023-10-19T02:30:30;101108.64;;;24.25;48.14
53635;BME280;39542;-34.932;138.594;2023-10-19T02:31:05;101109.68;;;24.32;48.00
53635;BME280;39542;-34.932;138.594;2023-10-19T02:31:40;101108.53;;;24.01;48.36
53635;BME280;39542;-34.932;138.594;2023-10-19T02:32:15;101108.27;;;23.91;48.41
53635;BME280;39542;-34.932;138.594;2023-10-19T02:32:49;101108.19;;;23.75;48.63
53635;BME280;39542;-34.932;138.594;2023-10-19T02:33:23;101108.50;;;23.80;48.72
53635;BME280;39542;-34.932;138.594;2023-10-19T02:33:57;101109.19;;;23.89;48.50
53635;BME280;39542;-34.932;138.594;2023-10-19T02:34:31;101105.01;;;24.06;48.29
53635;BME280;39542;-34.932;138.594;2023-10-19T02:35:06;101106.90;;;24.12;48.26
53635;BME280;39542;-34.932;138.594;2023-10-19T02:35:41;101108.11;;;24.08;48.13
53635;BME280;39542;-34.932;138.594;2023-10-19T02:36:15;101101.54;;;24.27;47.87
53635;BME280;39542;-34.932;138.594;2023-10-19T02:36:50;101098.24;;;24.30;47.92
53635;BME280;39542;-34.932;138.594;2023-10-19T02:37:24;101096.40;;;24.21;47.84
53635;BME280;39542;-34.932;138.594;2023-10-19T02:37:58;101096.86;;;24.06;48.13
53635;BME280;39542;-34.932;138.594;2023-10-19T02:38:32;101093.65;;;24.13;48.11
53635;BME280;39542;-34.932;138.594;2023-10-19T02:39:08;101095.98;;;24.31;47.86
53635;BME280;39542;-34.932;138.594;2023-10-19T02:39:42;101095.50;;;24.30;47.88
53635;BME280;39542;-34.932;138.594;2023-10-19T02:40:17;101097.21;;;24.14;48.12
53635;BME280;39542;-34.932;138.594;2023-10-19T02:40:51;101096.21;;;24.28;47.77
53635;BME280;39542;-34.932;138.594;2023-10-19T02:41:26;101094.84;;;24.22;47.88
53635;BME280;39542;-34.932;138.594;2023-10-19T02:42:01;101094.41;;;24.03;48.15
53635;BME280;39542;-34.932;138.594;2023-10-19T02:42:35;101094.13;;;23.87;48.41
53635;BME280;39542;-34.932;138.594;2023-10-19T02:43:10;101093.09;;;24.02;48.22
53635;BME280;39542;-34.932;138.594;2023-10-19T02:43:44;101093.96;;;24.23;47.92
53635;BME280;39542;-34.932;138.594;2023-10-19T02:44:19;101092.92;;;24.12;48.09
53635;BME280;39542;-34.932;138.594;2023-10-19T02:44:54;101090.55;;;24.27;47.82
53635;BME280;39542;-34.932;138.594;2023-10-19T02:45:28;101091.49;;;24.34;47.66
53635;BME280;39542;-34.932;138.594;2023-10-19T02:46:03;101091.82;;;24.34;47.67
53635;BME280;39542;-34.932;138.594;2023-10-19T02:46:37;101091.32;;;24.35;47.77
53635;BME280;39542;-34.932;138.594;2023-10-19T02:47:12;101092.75;;;24.27;47.78
53635;BME280;39542;-34.932;138.594;2023-10-19T02:47:47;101092.61;;;24.31;47.66
53635;BME280;39542;-34.932;138.594;2023-10-19T02:48:21;101090.86;;;24.28;47.90
53635;BME280;39542;-34.932;138.594;2023-10-19T02:48:56;101092.25;;;24.27;47.95
53635;BME280;39542;-34.932;138.594;2023-10-19T02:49:30;101093.58;;;24.22;47.92
53635;BME280;39542;-34.932;138.594;2023-10-19T02:50:05;101092.54;;;24.20;47.90
53635;BME280;39542;-34.932;138.594;2023-10-19T02:50:40;101094.31;;;24.31;47.76
53635;BME280;39542;-34.932;138.594;2023-10-19T02:51:15;101091.70;;;24.24;47.91
53635;BME280;39542;-34.932;138.594;2023-10-19T02:51:51;101090.57;;;24.22;47.88
53635;BME280;39542;-34.932;138.594;2023-10-19T02:52:26;101090.01;;;24.29;47.82
53635;BME280;39542;-34.932;138.594;2023-10-19T02:53:00;101090.41;;;24.32;47.81
53635;BME280;39542;-34.932;138.594;2023-10-19T02:53:35;101089.28;;;24.26;47.73
53635;BME280;39542;-34.932;138.594;2023-10-19T02:54:10;101088.93;;;24.26;47.95